< < Back
Terminal Aerodrome Forecast


Current Version              Previous Versions:   1  2  3  4  5  6  7  8  9  

Terminal Aerodrome Forecast

671
FTUS42 KFFC 272338
TAFPDK
TAF
KPDK 272338Z 2800/2824 24008KT P6SM FEW050 SCT070
     FM280200 25005KT P6SM SCT250
     FM281500 23010G15KT P6SM BKN030
     FM281800 24012G18KT P6SM VCSH BKN050=



Latest METAR

282
SAUS70 KWBC 281600 RRI
MTRPDK
METAR KPDK 281553Z 25007KT 10SM BKN024 BKN032 28/21 A3006 RMK AO2 SLP156
T02830206


USA.gov is the U.S. government's official web portal to all federal, state and local government web resources and services.